createdAt,value
2023-03-08T00:01:55.102Z,0.90
2023-03-08T00:06:57.339Z,1.40
2023-03-08T00:12:00.396Z,1.10
2023-03-08T00:17:02.891Z,0.98
2023-03-08T00:22:05.089Z,0.88
2023-03-08T00:27:06.694Z,0.88
2023-03-08T00:32:08.433Z,1.08
2023-03-08T00:37:10.077Z,0.98
2023-03-08T00:42:12.856Z,0.70
2023-03-08T00:47:15.582Z,0.60
2023-03-08T00:52:17.670Z,1.15
2023-03-08T00:57:19.350Z,0.63
2023-03-08T01:02:21.126Z,1.20
2023-03-08T01:07:24.084Z,1.10
2023-03-08T01:12:25.705Z,0.90
2023-03-08T01:17:27.879Z,0.77
2023-03-08T01:22:29.536Z,1.40
2023-03-08T01:27:32.399Z,0.85
2023-03-08T01:32:34.792Z,1.17
2023-03-08T01:37:36.720Z,0.95
2023-03-08T01:42:40.425Z,0.82
2023-03-08T01:47:42.041Z,0.82
2023-03-08T01:52:59.634Z,0.75
2023-03-08T01:58:01.410Z,1.42
2023-03-08T02:03:10.896Z,1.17
2023-03-08T02:08:12.777Z,0.82
2023-03-08T02:13:16.454Z,1.02
2023-03-08T02:18:19.296Z,1.10
2023-03-08T02:23:23.592Z,1.30
2023-03-08T02:28:26.808Z,1.13
2023-03-08T02:33:28.470Z,1.33
2023-03-08T02:38:32.288Z,1.55
2023-03-08T02:43:34.595Z,1.40
2023-03-08T02:48:36.556Z,1.10
2023-03-08T02:53:38.845Z,1.00
2023-03-08T02:58:40.531Z,1.00
2023-03-08T03:03:43.138Z,1.25
2023-03-08T03:08:45.096Z,1.20
2023-03-08T03:13:47.273Z,1.10
2023-03-08T03:18:52.659Z,1.40
2023-03-08T03:23:55.438Z,1.55
2023-03-08T03:29:03.711Z,1.40
2023-03-08T03:34:09.523Z,1.38
2023-03-08T03:39:11.898Z,1.40
2023-03-08T03:44:15.524Z,1.55
2023-03-08T03:49:19.557Z,1.73
2023-03-08T03:54:22.266Z,1.67
2023-03-08T03:59:26.771Z,1.52
2023-03-08T04:04:29.100Z,1.23
2023-03-08T04:09:30.930Z,1.73
2023-03-08T04:14:41.758Z,1.52
2023-03-08T04:19:49.829Z,1.60
2023-03-08T04:24:52.578Z,1.50
2023-03-08T04:30:04.557Z,1.90
2023-03-08T04:35:07.433Z,1.08
2023-03-08T04:40:13.272Z,1.20
2023-03-08T04:45:31.230Z,1.50
2023-03-08T04:50:35.571Z,2.08
2023-03-08T04:55:38.137Z,1.52
2023-03-08T05:00:40.470Z,2.13
2023-03-08T05:05:52.090Z,2.72
2023-03-08T05:11:01.303Z,3.20
2023-03-08T05:16:08.378Z,3.50
2023-03-08T05:21:16.113Z,3.00
2023-03-08T05:26:19.351Z,3.40
2023-03-08T05:31:23.038Z,4.20
2023-03-08T05:36:27.524Z,4.15
2023-03-08T05:41:31.970Z,3.70
2023-03-08T05:46:35.195Z,3.92
2023-03-08T05:51:37.919Z,3.75
2023-03-08T05:56:40.272Z,3.55
2023-03-08T06:01:48.892Z,4.30
2023-03-08T06:07:01.086Z,3.63
2023-03-08T06:12:09.185Z,4.32
2023-03-08T06:17:11.455Z,4.03
2023-03-08T06:22:17.809Z,4.38
2023-03-08T06:27:20.679Z,4.07
2023-03-08T06:32:24.259Z,3.95
2023-03-08T06:37:26.922Z,5.55
2023-03-08T06:42:40.629Z,4.25
2023-03-08T06:47:45.230Z,4.10
2023-03-08T06:52:48.151Z,3.95
2023-03-08T06:57:55.577Z,4.25
2023-03-08T07:02:57.210Z,4.25
2023-03-08T07:07:58.861Z,4.20
2023-03-08T07:13:00.710Z,4.28
2023-03-08T07:18:02.307Z,6.15
2023-03-08T07:23:04.213Z,5.55
2023-03-08T07:28:06.134Z,5.05
2023-03-08T07:33:07.754Z,4.50
2023-03-08T07:38:14.860Z,4.22
2023-03-08T07:43:16.533Z,5.00
2023-03-08T07:48:29.968Z,4.32
2023-03-08T07:53:31.697Z,3.97
2023-03-08T07:58:33.418Z,4.38
2023-03-08T08:03:35.128Z,4.70
2023-03-08T08:08:36.825Z,4.30
2023-03-08T08:13:38.490Z,5.70
2023-03-08T08:18:40.415Z,5.75
2023-03-08T08:24:05.067Z,4.97
2023-03-08T08:29:07.997Z,5.53
2023-03-08T08:34:18.357Z,5.72
2023-03-08T08:39:27.020Z,5.50
2023-03-08T08:44:28.759Z,4.88
2023-03-08T08:49:30.381Z,5.85
2023-03-08T08:54:33.843Z,4.38
2023-03-08T08:59:35.625Z,4.25
2023-03-08T09:04:37.332Z,4.30
2023-03-08T09:09:38.986Z,13.23
2023-03-08T09:14:40.633Z,3.55
2023-03-08T09:19:42.349Z,4.10
2023-03-08T09:24:45.867Z,3.63
2023-03-08T09:29:47.477Z,3.90
2023-03-08T09:34:49.241Z,3.78
2023-03-08T09:39:51.753Z,2.92
2023-03-08T09:45:21.297Z,3.22
2023-03-08T09:50:33.532Z,3.50
2023-03-08T09:55:44.597Z,2.53
2023-03-08T10:00:46.899Z,3.08
2023-03-08T10:06:17.056Z,2.10
2023-03-08T10:11:28.612Z,5.63
2023-03-08T10:16:45.594Z,7.40
2023-03-08T10:21:48.056Z,9.80
2023-03-08T10:26:49.718Z,8.00
2023-03-08T10:31:51.449Z,8.15
2023-03-08T10:36:58.630Z,7.65
2023-03-08T10:42:06.339Z,8.15
2023-03-08T10:47:17.213Z,7.75
2023-03-08T10:52:29.019Z,9.98
2023-03-08T10:57:31.287Z,8.52
2023-03-08T11:02:33.157Z,9.30
2023-03-08T11:07:35.531Z,9.55
2023-03-08T11:12:37.882Z,9.45
2023-03-08T11:17:47.574Z,9.85
2023-03-08T11:23:12.247Z,10.05
2023-03-08T11:28:29.588Z,10.68
2023-03-08T11:33:37.559Z,10.25
2023-03-08T11:38:39.661Z,11.93
2023-03-08T11:44:09.414Z,11.75
2023-03-08T11:49:13.712Z,9.80
2023-03-08T11:54:33.914Z,9.00
2023-03-08T11:59:40.006Z,7.38
2023-03-08T12:05:09.205Z,7.80
2023-03-08T12:10:13.766Z,9.30
2023-03-08T12:15:26.731Z,8.95
2023-03-08T12:20:35.282Z,8.90
2023-03-08T12:25:40.604Z,6.30
2023-03-08T12:30:51.142Z,8.48
2023-03-08T12:36:01.582Z,8.98
2023-03-08T12:41:05.444Z,8.65
2023-03-08T12:46:09.964Z,7.45
2023-03-08T12:51:14.678Z,6.18
2023-03-08T12:56:29.805Z,6.90
2023-03-08T13:01:40.356Z,7.00
2023-03-08T13:07:06.480Z,5.60
2023-03-08T13:12:16.895Z,6.80
2023-03-08T13:17:30.500Z,7.50
2023-03-08T13:22:55.355Z,8.00
2023-03-08T13:28:13.366Z,8.35
2023-03-08T13:33:36.644Z,7.80
2023-03-08T13:38:38.347Z,7.60
2023-03-08T13:43:39.969Z,7.43
2023-03-08T13:48:44.299Z,8.20
2023-03-08T13:53:46.741Z,9.15
2023-03-08T13:58:50.662Z,7.60
2023-03-08T14:03:56.181Z,7.28
2023-03-08T14:09:03.757Z,6.85
2023-03-08T14:14:10.502Z,6.13
2023-03-08T14:19:15.264Z,7.22
2023-03-08T14:24:24.229Z,7.15
2023-03-08T14:29:36.593Z,6.32
2023-03-08T14:34:46.506Z,6.35
2023-03-08T14:39:52.114Z,6.20
2023-03-08T14:45:00.165Z,6.60
2023-03-08T14:50:20.207Z,7.65
2023-03-08T14:55:26.806Z,7.00
2023-03-08T15:00:29.835Z,7.32
2023-03-08T15:05:31.957Z,7.25
2023-03-08T15:10:39.973Z,8.23
2023-03-08T15:15:42.138Z,7.28
2023-03-08T15:20:46.171Z,7.88
2023-03-08T15:25:48.259Z,8.20
2023-03-08T15:30:52.896Z,7.28
2023-03-08T15:35:54.885Z,7.93
2023-03-08T15:40:56.548Z,7.70
2023-03-08T15:45:58.216Z,8.13
2023-03-08T15:51:00.096Z,7.95
2023-03-08T15:56:01.772Z,8.75
2023-03-08T16:01:05.015Z,7.90
2023-03-08T16:06:10.983Z,6.63
2023-03-08T16:11:16.029Z,5.97
2023-03-08T16:16:18.314Z,6.88
2023-03-08T16:21:20.045Z,7.68
2023-03-08T16:26:21.921Z,6.10
2023-03-08T16:31:23.816Z,6.72
2023-03-08T16:36:25.559Z,6.90
2023-03-08T16:41:29.307Z,10.52
2023-03-08T16:46:30.988Z,8.75
2023-03-08T16:51:32.789Z,7.00
2023-03-08T16:56:34.681Z,7.05
2023-03-08T17:01:36.314Z,7.00
2023-03-08T17:06:39.084Z,6.63
2023-03-08T17:11:42.485Z,6.93
2023-03-08T17:16:44.190Z,6.40
2023-03-08T17:21:45.933Z,6.75
2023-03-08T17:26:50.739Z,7.40
2023-03-08T17:31:52.574Z,7.22
2023-03-08T17:36:54.332Z,7.85
2023-03-08T17:41:56.036Z,7.32
2023-03-08T17:46:57.710Z,9.20
2023-03-08T17:51:59.602Z,9.15
2023-03-08T17:57:01.444Z,9.13
2023-03-08T18:02:03.257Z,9.57
2023-03-08T18:07:06.015Z,9.25
2023-03-08T18:12:11.655Z,19.98
2023-03-08T18:17:13.343Z,9.65
2023-03-08T18:22:15.644Z,10.52
2023-03-08T18:27:17.303Z,10.32
2023-03-08T18:32:19.060Z,11.35
2023-03-08T18:37:20.747Z,13.50
2023-03-08T18:42:22.402Z,9.98
2023-03-08T18:47:24.094Z,8.90
2023-03-08T18:52:25.860Z,9.95
2023-03-08T18:57:27.479Z,10.82
2023-03-08T19:02:29.264Z,13.50
2023-03-08T19:07:31.002Z,12.65
2023-03-08T19:12:33.736Z,13.15
2023-03-08T19:17:35.561Z,14.82
2023-03-08T19:22:37.967Z,15.10
2023-03-08T19:27:39.606Z,13.88
2023-03-08T19:32:42.723Z,15.00
2023-03-08T19:37:44.522Z,14.27
2023-03-08T19:42:46.316Z,13.85
2023-03-08T19:47:49.516Z,15.10
2023-03-08T19:52:51.181Z,13.75
2023-03-08T19:57:52.829Z,12.95
2023-03-08T20:02:54.711Z,12.55
2023-03-08T20:07:56.324Z,13.82
2023-03-08T20:12:58.018Z,13.23
2023-03-08T20:17:59.892Z,12.77
2023-03-08T20:23:01.534Z,13.85
2023-03-08T20:28:03.429Z,13.18
2023-03-08T20:33:05.554Z,11.57
2023-03-08T20:38:07.228Z,12.60
2023-03-08T20:43:11.016Z,12.10
2023-03-08T20:48:12.602Z,11.90
2023-03-08T20:53:14.623Z,9.77
2023-03-08T20:58:16.241Z,11.38
2023-03-08T21:03:18.107Z,11.25
2023-03-08T21:08:20.039Z,11.85
2023-03-08T21:13:21.687Z,12.02
2023-03-08T21:18:23.369Z,13.10
2023-03-08T21:23:25.572Z,12.60
2023-03-08T21:28:27.216Z,12.95
2023-03-08T21:33:28.839Z,13.35
2023-03-08T21:38:30.529Z,12.55
2023-03-08T21:43:32.293Z,12.85
2023-03-08T21:48:34.038Z,11.57
2023-03-08T21:53:35.811Z,11.48
2023-03-08T21:58:37.992Z,12.50
2023-03-08T22:03:39.873Z,13.43
2023-03-08T22:08:41.569Z,12.32
2023-03-08T22:13:43.408Z,10.35
2023-03-08T22:18:45.932Z,8.43
2023-03-08T22:23:55.523Z,9.48
2023-03-08T22:28:57.269Z,9.90
2023-03-08T22:33:58.911Z,8.77
2023-03-08T22:39:00.547Z,8.40
2023-03-08T22:44:04.120Z,8.18
2023-03-08T22:49:07.290Z,7.88
2023-03-08T22:54:15.729Z,7.53
2023-03-08T22:59:17.827Z,7.25
2023-03-08T23:04:20.237Z,6.75
2023-03-08T23:09:22.293Z,6.45
2023-03-08T23:14:23.992Z,6.05
2023-03-08T23:19:25.813Z,5.72
2023-03-08T23:24:27.425Z,6.63
2023-03-08T23:29:29.154Z,7.95
2023-03-08T23:34:30.820Z,8.45
2023-03-08T23:39:34.029Z,7.47
2023-03-08T23:44:35.837Z,8.70
2023-03-08T23:49:37.593Z,8.27
2023-03-08T23:54:39.346Z,8.02
2023-03-08T23:59:40.988Z,7.07
